Time,TemperatureF,DewpointF,PressureIn,WindDirection,WindDirectionDegrees,WindSpeedMPH,WindSpeedGustMPH,Humidity,HourlyPrecipIn,Conditions,Clouds,dailyrainin,SolarRadiationWatts/m^2,SoftwareType,DateUTC
2013-10-05 00:43:00,29.0,-99.9,-100.00,NNW,344,4.0,7.0,0,0.00,,,0.18,0.000000,,2013-10-05 06:43:00,
2013-10-05 00:52:00,29.0,-99.9,-100.00,NNW,344,4.0,7.0,0,0.00,,,0.18,0.000000,,2013-10-05 06:52:00,
2013-10-05 01:02:00,29.0,-99.9,-100.00,NNW,344,4.0,7.0,0,0.00,,,0.18,0.000000,,2013-10-05 07:02:00,
2013-10-05 01:42:00,29.0,-99.9,-100.00,North,1,3.0,6.0,0,0.00,,,0.18,0.000000,,2013-10-05 07:42:00,
2013-10-05 01:52:00,29.0,-99.9,-100.00,North,1,3.0,6.0,0,0.00,,,0.18,0.000000,,2013-10-05 07:52:00,
2013-10-05 02:02:00,29.0,-99.9,-100.00,North,1,3.0,6.0,0,0.00,,,0.18,0.000000,,2013-10-05 08:02:00,
2013-10-05 03:43:00,28.0,-99.9,-100.00,NNE,21,3.0,5.0,0,0.00,,,-99.99,0.000000,,2013-10-05 09:43:00,
2013-10-05 03:54:00,28.0,-99.9,-100.00,NNE,21,3.0,5.0,0,0.00,,,-99.99,0.000000,,2013-10-05 09:54:00,
2013-10-05 04:04:00,28.0,-99.9,-100.00,NNE,21,3.0,5.0,0,0.00,,,-99.99,0.000000,,2013-10-05 10:04:00,
2013-10-05 04:43:00,28.0,27.0,-100.00,NNW,330,3.0,5.0,97,0.00,,,0.18,0.000000,,2013-10-05 10:43:00,
2013-10-05 04:53:00,28.0,27.0,-100.00,NNW,330,3.0,5.0,97,0.00,,,0.18,0.000000,,2013-10-05 10:53:00,
2013-10-05 05:02:00,28.0,27.0,-100.00,NNW,330,3.0,5.0,97,0.00,,,0.18,0.000000,,2013-10-05 11:02:00,
2013-10-05 05:43:00,27.0,27.0,-100.00,NW,323,3.0,5.0,100,0.00,,,0.18,0.000000,,2013-10-05 11:43:00,
2013-10-05 05:52:00,27.0,27.0,-100.00,NW,323,3.0,5.0,100,0.00,,,0.18,0.000000,,2013-10-05 11:52:00,
2013-10-05 06:01:00,27.0,27.0,-100.00,NW,323,3.0,5.0,100,0.00,,,0.18,0.000000,,2013-10-05 12:01:00,
2013-10-05 06:42:00,27.0,24.0,-100.00,NNW,339,4.0,7.0,89,0.00,,,0.18,0.000000,,2013-10-05 12:42:00,
2013-10-05 06:53:00,27.0,24.0,-100.00,NNW,339,4.0,7.0,89,0.00,,,0.18,0.000000,,2013-10-05 12:53:00,
2013-10-05 07:01:00,27.0,24.0,-100.00,NNW,339,4.0,7.0,89,0.00,,,0.18,0.000000,,2013-10-05 13:01:00,
2013-10-05 07:42:00,27.0,24.0,-100.00,NNW,333,3.0,6.0,88,0.00,,,0.18,0.000000,,2013-10-05 13:42:00,
2013-10-05 07:52:00,27.0,24.0,-100.00,NNW,333,3.0,6.0,88,0.00,,,0.18,0.000000,,2013-10-05 13:52:00,
2013-10-05 08:02:00,27.0,24.0,-100.00,NNW,333,3.0,6.0,88,0.00,,,0.18,0.000000,,2013-10-05 14:02:00,
2013-10-05 08:42:00,30.0,23.0,-100.00,NNE,30,3.0,5.0,74,0.00,,,0.18,10.000000,,2013-10-05 14:42:00,
2013-10-05 08:52:00,30.0,23.0,-100.00,NNE,30,3.0,5.0,74,0.00,,,0.18,10.000000,,2013-10-05 14:52:00,
2013-10-05 09:02:00,30.0,23.0,-100.00,NNE,30,3.0,5.0,74,0.00,,,0.18,10.000000,,2013-10-05 15:02:00,
2013-10-05 09:44:00,30.0,23.0,-100.00,NNE,14,4.0,7.0,75,0.00,,,-99.99,49.000000,,2013-10-05 15:44:00,
2013-10-05 09:53:00,30.0,23.0,-100.00,NNE,14,4.0,7.0,75,0.00,,,-99.99,49.000000,,2013-10-05 15:53:00,
2013-10-05 10:03:00,30.0,23.0,-100.00,NNE,14,4.0,7.0,75,0.00,,,-99.99,49.000000,,2013-10-05 16:03:00,
2013-10-05 12:42:00,44.0,26.0,-100.00,SSW,211,7.0,10.0,49,-99.99,,,0.06,682.000000,,2013-10-05 18:42:00,
2013-10-05 12:52:00,44.0,26.0,-100.00,SSW,211,7.0,10.0,49,-99.99,,,0.06,682.000000,,2013-10-05 18:52:00,
2013-10-05 13:01:00,44.0,26.0,-100.00,SSW,211,7.0,10.0,49,-99.99,,,0.06,682.000000,,2013-10-05 19:01:00,
2013-10-05 13:42:00,46.0,21.0,-100.00,SSW,192,11.0,15.0,37,0.00,,,0.00,767.000000,,2013-10-05 19:42:00,
2013-10-05 13:52:00,46.0,21.0,-100.00,SSW,192,11.0,15.0,37,0.00,,,0.00,767.000000,,2013-10-05 19:52:00,
2013-10-05 14:02:00,46.0,21.0,-100.00,SSW,192,11.0,15.0,37,0.00,,,0.00,767.000000,,2013-10-05 20:02:00,
2013-10-05 14:42:00,48.0,25.0,-100.00,South,191,13.0,20.0,41,0.00,,,-99.99,809.000000,,2013-10-05 20:42:00,
2013-10-05 14:52:00,48.0,25.0,-100.00,South,191,13.0,20.0,41,0.00,,,-99.99,809.000000,,2013-10-05 20:52:00,
2013-10-05 15:01:00,48.0,25.0,-100.00,South,191,13.0,20.0,41,0.00,,,-99.99,809.000000,,2013-10-05 21:01:00,
2013-10-05 15:44:00,50.0,27.0,-100.00,SSW,207,13.0,19.0,40,0.00,,,0.00,779.000000,,2013-10-05 21:44:00,
2013-10-05 15:54:00,50.0,27.0,-100.00,SSW,207,13.0,19.0,40,0.00,,,0.00,779.000000,,2013-10-05 21:54:00,
2013-10-05 16:04:00,50.0,27.0,-100.00,SSW,207,13.0,19.0,40,0.00,,,0.00,779.000000,,2013-10-05 22:04:00,
2013-10-05 16:42:00,53.0,23.0,-100.00,SW,221,8.0,17.0,31,0.00,,,0.00,685.000000,,2013-10-05 22:42:00,
2013-10-05 16:53:00,53.0,23.0,-100.00,SW,221,8.0,17.0,31,0.00,,,0.00,685.000000,,2013-10-05 22:53:00,
2013-10-05 17:02:00,53.0,23.0,-100.00,SW,221,8.0,17.0,31,0.00,,,0.00,685.000000,,2013-10-05 23:02:00,
2013-10-05 17:43:00,53.0,23.0,-100.00,SW,231,8.0,15.0,31,0.00,,,0.00,505.000000,,2013-10-05 23:43:00,
2013-10-05 17:53:00,53.0,23.0,-100.00,SW,231,8.0,15.0,31,0.00,,,0.00,505.000000,,2013-10-05 23:53:00,
2013-10-05 18:02:00,53.0,23.0,-100.00,SW,231,8.0,15.0,31,0.00,,,0.00,505.000000,,2013-10-06 00:02:00,
2013-10-05 18:43:00,52.0,25.0,-100.00,SW,231,6.0,12.0,34,0.00,,,0.00,293.000000,,2013-10-06 00:43:00,
2013-10-05 18:52:00,52.0,25.0,-100.00,SW,231,6.0,12.0,34,0.00,,,0.00,293.000000,,2013-10-06 00:52:00,
2013-10-05 19:01:00,52.0,25.0,-100.00,SW,231,6.0,12.0,34,0.00,,,0.00,293.000000,,2013-10-06 01:01:00,
2013-10-05 19:42:00,48.0,20.0,-100.00,WSW,237,5.0,10.0,32,0.00,,,0.00,80.000000,,2013-10-06 01:42:00,
2013-10-05 19:52:00,48.0,20.0,-100.00,WSW,237,5.0,10.0,32,0.00,,,0.00,80.000000,,2013-10-06 01:52:00,
2013-10-05 20:02:00,48.0,20.0,-100.00,WSW,237,5.0,10.0,32,0.00,,,0.00,80.000000,,2013-10-06 02:02:00,
2013-10-05 20:42:00,45.0,21.0,-100.00,South,176,2.0,6.0,38,0.00,,,0.00,2.000000,,2013-10-06 02:42:00,
2013-10-05 20:52:00,45.0,21.0,-100.00,South,176,2.0,6.0,38,0.00,,,0.00,2.000000,,2013-10-06 02:52:00,
2013-10-05 21:02:00,45.0,21.0,-100.00,South,176,2.0,6.0,38,0.00,,,0.00,2.000000,,2013-10-06 03:02:00,
2013-10-05 21:44:00,42.0,21.0,-100.00,NE,37,3.0,4.0,43,-99.99,,,0.00,0.000000,,2013-10-06 03:44:00,
2013-10-05 22:44:00,40.0,21.0,-100.00,North,350,4.0,5.0,46,-99.99,,,0.00,0.000000,,2013-10-06 04:44:00,
2013-10-05 22:54:00,40.0,21.0,-100.00,North,350,4.0,5.0,46,-99.99,,,0.00,0.000000,,2013-10-06 04:54:00,
2013-10-05 23:03:00,40.0,21.0,-100.00,North,350,4.0,5.0,46,-99.99,,,0.00,0.000000,,2013-10-06 05:03:00,
2013-10-05 23:43:00,41.0,21.0,-100.00,North,353,4.0,6.0,45,0.00,,,0.00,0.000000,,2013-10-06 05:43:00,
2013-10-05 23:52:00,41.0,21.0,-100.00,North,353,4.0,6.0,45,0.00,,,0.00,0.000000,,2013-10-06 05:52:00,